sensor_id;sensor_type;location;lat;lon;timestamp;P1;durP1;ratioP1;P2;durP2;ratioP2
4486;SDS011;2256;48.740;9.106;2022-12-10T00:02:25;63.58;;;24.67;;
4486;SDS011;2256;48.740;9.106;2022-12-10T00:04:52;70.88;;;26.20;;
4486;SDS011;2256;48.740;9.106;2022-12-10T00:07:19;54.67;;;23.90;;
4486;SDS011;2256;48.740;9.106;2022-12-10T00:09:45;59.08;;;25.58;;
4486;SDS011;2256;48.740;9.106;2022-12-10T00:12:12;59.38;;;25.23;;
4486;SDS011;2256;48.740;9.106;2022-12-10T00:14:39;57.05;;;24.52;;
4486;SDS011;2256;48.740;9.106;2022-12-10T00:17:07;59.90;;;26.63;;
4486;SDS011;2256;48.740;9.106;2022-12-10T00:19:33;69.32;;;26.85;;
4486;SDS011;2256;48.740;9.106;2022-12-10T00:22:00;59.58;;;25.17;;
4486;SDS011;2256;48.740;9.106;2022-12-10T00:24:29;59.67;;;24.33;;
4486;SDS011;2256;48.740;9.106;2022-12-10T00:26:56;68.82;;;24.75;;
4486;SDS011;2256;48.740;9.106;2022-12-10T00:29:22;58.78;;;23.23;;
4486;SDS011;2256;48.740;9.106;2022-12-10T00:31:49;55.80;;;25.55;;
4486;SDS011;2256;48.740;9.106;2022-12-10T00:34:17;65.97;;;25.45;;
4486;SDS011;2256;48.740;9.106;2022-12-10T00:36:44;70.82;;;25.38;;
4486;SDS011;2256;48.740;9.106;2022-12-10T00:39:13;59.45;;;24.70;;
4486;SDS011;2256;48.740;9.106;2022-12-10T00:41:41;68.30;;;25.08;;
4486;SDS011;2256;48.740;9.106;2022-12-10T00:44:09;64.10;;;25.38;;
4486;SDS011;2256;48.740;9.106;2022-12-10T00:46:36;58.28;;;23.48;;
4486;SDS011;2256;48.740;9.106;2022-12-10T00:49:03;55.88;;;25.35;;
4486;SDS011;2256;48.740;9.106;2022-12-10T00:51:32;58.50;;;25.48;;
4486;SDS011;2256;48.740;9.106;2022-12-10T00:53:58;63.47;;;26.38;;
4486;SDS011;2256;48.740;9.106;2022-12-10T00:56:26;68.20;;;25.25;;
4486;SDS011;2256;48.740;9.106;2022-12-10T00:58:54;65.15;;;24.50;;
4486;SDS011;2256;48.740;9.106;2022-12-10T01:01:22;65.00;;;27.02;;
4486;SDS011;2256;48.740;9.106;2022-12-10T01:03:52;62.42;;;24.40;;
4486;SDS011;2256;48.740;9.106;2022-12-10T01:06:21;60.28;;;24.00;;
4486;SDS011;2256;48.740;9.106;2022-12-10T01:08:50;61.28;;;25.73;;
4486;SDS011;2256;48.740;9.106;2022-12-10T01:11:20;56.58;;;23.38;;
4486;SDS011;2256;48.740;9.106;2022-12-10T01:13:48;52.33;;;22.20;;
4486;SDS011;2256;48.740;9.106;2022-12-10T01:16:16;53.97;;;22.92;;
4486;SDS011;2256;48.740;9.106;2022-12-10T01:18:44;56.30;;;24.95;;
4486;SDS011;2256;48.740;9.106;2022-12-10T01:21:12;60.70;;;23.00;;
4486;SDS011;2256;48.740;9.106;2022-12-10T01:23:41;53.75;;;22.83;;
4486;SDS011;2256;48.740;9.106;2022-12-10T01:26:12;54.40;;;23.45;;
4486;SDS011;2256;48.740;9.106;2022-12-10T01:28:40;61.63;;;24.85;;
4486;SDS011;2256;48.740;9.106;2022-12-10T01:31:09;59.83;;;24.23;;
4486;SDS011;2256;48.740;9.106;2022-12-10T01:33:37;61.47;;;23.83;;
4486;SDS011;2256;48.740;9.106;2022-12-10T01:36:05;64.97;;;26.15;;
4486;SDS011;2256;48.740;9.106;2022-12-10T01:38:33;54.78;;;22.48;;
4486;SDS011;2256;48.740;9.106;2022-12-10T01:41:00;54.30;;;23.20;;
4486;SDS011;2256;48.740;9.106;2022-12-10T01:43:32;47.45;;;22.15;;
4486;SDS011;2256;48.740;9.106;2022-12-10T01:46:15;56.20;;;23.30;;
4486;SDS011;2256;48.740;9.106;2022-12-10T01:48:42;62.08;;;24.98;;
4486;SDS011;2256;48.740;9.106;2022-12-10T01:51:09;54.28;;;23.90;;
4486;SDS011;2256;48.740;9.106;2022-12-10T01:53:37;54.88;;;24.25;;
4486;SDS011;2256;48.740;9.106;2022-12-10T01:56:05;58.60;;;24.40;;
4486;SDS011;2256;48.740;9.106;2022-12-10T01:58:34;58.97;;;23.98;;
4486;SDS011;2256;48.740;9.106;2022-12-10T02:01:04;60.00;;;23.48;;
4486;SDS011;2256;48.740;9.106;2022-12-10T02:03:37;55.35;;;23.88;;
4486;SDS011;2256;48.740;9.106;2022-12-10T02:06:17;53.90;;;22.67;;
4486;SDS011;2256;48.740;9.106;2022-12-10T02:09:02;56.78;;;23.48;;
4486;SDS011;2256;48.740;9.106;2022-12-10T02:11:37;53.42;;;23.48;;
4486;SDS011;2256;48.740;9.106;2022-12-10T02:14:13;58.88;;;24.70;;
4486;SDS011;2256;48.740;9.106;2022-12-10T02:16:44;56.78;;;23.70;;
4486;SDS011;2256;48.740;9.106;2022-12-10T02:19:18;59.03;;;23.58;;
4486;SDS011;2256;48.740;9.106;2022-12-10T02:21:49;56.13;;;22.77;;
4486;SDS011;2256;48.740;9.106;2022-12-10T02:24:18;50.33;;;23.00;;
4486;SDS011;2256;48.740;9.106;2022-12-10T02:26:50;56.75;;;24.05;;
4486;SDS011;2256;48.740;9.106;2022-12-10T02:29:24;58.47;;;22.88;;
4486;SDS011;2256;48.740;9.106;2022-12-10T02:31:54;50.72;;;21.70;;
4486;SDS011;2256;48.740;9.106;2022-12-10T02:34:27;56.30;;;23.83;;
4486;SDS011;2256;48.740;9.106;2022-12-10T02:36:57;57.60;;;23.30;;
4486;SDS011;2256;48.740;9.106;2022-12-10T02:39:29;54.40;;;23.65;;
4486;SDS011;2256;48.740;9.106;2022-12-10T02:42:00;47.38;;;20.88;;
4486;SDS011;2256;48.740;9.106;2022-12-10T02:44:31;51.58;;;22.35;;
4486;SDS011;2256;48.740;9.106;2022-12-10T02:47:02;55.90;;;24.55;;
4486;SDS011;2256;48.740;9.106;2022-12-10T02:49:29;62.95;;;23.15;;
4486;SDS011;2256;48.740;9.106;2022-12-10T02:51:57;58.67;;;24.00;;
4486;SDS011;2256;48.740;9.106;2022-12-10T02:54:34;56.47;;;22.63;;
4486;SDS011;2256;48.740;9.106;2022-12-10T02:57:18;68.30;;;23.00;;
4486;SDS011;2256;48.740;9.106;2022-12-10T03:00:04;53.00;;;23.00;;
4486;SDS011;2256;48.740;9.106;2022-12-10T03:02:40;52.28;;;22.08;;
4486;SDS011;2256;48.740;9.106;2022-12-10T03:05:15;58.15;;;24.13;;
4486;SDS011;2256;48.740;9.106;2022-12-10T03:07:47;53.30;;;23.52;;
4486;SDS011;2256;48.740;9.106;2022-12-10T03:10:20;56.78;;;23.00;;
4486;SDS011;2256;48.740;9.106;2022-12-10T03:12:53;60.20;;;25.20;;
4486;SDS011;2256;48.740;9.106;2022-12-10T03:15:25;49.13;;;22.25;;
4486;SDS011;2256;48.740;9.106;2022-12-10T03:17:53;49.08;;;22.30;;
4486;SDS011;2256;48.740;9.106;2022-12-10T03:20:22;55.58;;;22.77;;
4486;SDS011;2256;48.740;9.106;2022-12-10T03:22:52;55.97;;;22.80;;
4486;SDS011;2256;48.740;9.106;2022-12-10T03:25:22;67.15;;;22.63;;
4486;SDS011;2256;48.740;9.106;2022-12-10T03:27:51;61.53;;;23.73;;
4486;SDS011;2256;48.740;9.106;2022-12-10T03:30:21;52.42;;;22.52;;
4486;SDS011;2256;48.740;9.106;2022-12-10T03:32:50;48.53;;;21.88;;
4486;SDS011;2256;48.740;9.106;2022-12-10T03:35:18;50.90;;;22.23;;
4486;SDS011;2256;48.740;9.106;2022-12-10T03:40:20;59.72;;;23.80;;
4486;SDS011;2256;48.740;9.106;2022-12-10T03:42:51;51.67;;;21.05;;
4486;SDS011;2256;48.740;9.106;2022-12-10T03:45:18;53.25;;;23.35;;
4486;SDS011;2256;48.740;9.106;2022-12-10T03:47:47;49.50;;;22.42;;
4486;SDS011;2256;48.740;9.106;2022-12-10T03:50:16;51.67;;;23.52;;
4486;SDS011;2256;48.740;9.106;2022-12-10T03:52:43;52.33;;;22.65;;
4486;SDS011;2256;48.740;9.106;2022-12-10T03:55:10;58.50;;;22.98;;
4486;SDS011;2256;48.740;9.106;2022-12-10T03:57:37;48.42;;;20.90;;
4486;SDS011;2256;48.740;9.106;2022-12-10T04:00:04;54.70;;;22.02;;
4486;SDS011;2256;48.740;9.106;2022-12-10T04:02:32;51.25;;;21.63;;
4486;SDS011;2256;48.740;9.106;2022-12-10T04:05:00;50.30;;;22.00;;
4486;SDS011;2256;48.740;9.106;2022-12-10T04:07:28;56.08;;;22.00;;
4486;SDS011;2256;48.740;9.106;2022-12-10T04:09:55;48.63;;;21.65;;
4486;SDS011;2256;48.740;9.106;2022-12-10T04:12:22;50.78;;;21.33;;
4486;SDS011;2256;48.740;9.106;2022-12-10T04:14:48;54.03;;;22.23;;
4486;SDS011;2256;48.740;9.106;2022-12-10T04:17:33;49.88;;;22.20;;
4486;SDS011;2256;48.740;9.106;2022-12-10T04:20:00;49.85;;;21.00;;
4486;SDS011;2256;48.740;9.106;2022-12-10T04:22:28;54.95;;;23.00;;
4486;SDS011;2256;48.740;9.106;2022-12-10T04:25:13;58.88;;;23.17;;
4486;SDS011;2256;48.740;9.106;2022-12-10T04:27:57;53.05;;;22.55;;
4486;SDS011;2256;48.740;9.106;2022-12-10T04:30:24;53.47;;;22.63;;
4486;SDS011;2256;48.740;9.106;2022-12-10T04:32:52;44.67;;;21.20;;
4486;SDS011;2256;48.740;9.106;2022-12-10T04:35:18;51.30;;;21.90;;
4486;SDS011;2256;48.740;9.106;2022-12-10T04:37:46;50.50;;;21.67;;
4486;SDS011;2256;48.740;9.106;2022-12-10T04:40:13;47.65;;;21.80;;
4486;SDS011;2256;48.740;9.106;2022-12-10T04:42:40;46.35;;;21.55;;
4486;SDS011;2256;48.740;9.106;2022-12-10T04:45:07;59.97;;;23.40;;
4486;SDS011;2256;48.740;9.106;2022-12-10T04:47:34;42.45;;;20.48;;
4486;SDS011;2256;48.740;9.106;2022-12-10T04:50:01;46.45;;;21.02;;
4486;SDS011;2256;48.740;9.106;2022-12-10T04:52:27;48.97;;;21.95;;
4486;SDS011;2256;48.740;9.106;2022-12-10T04:54:56;57.85;;;22.50;;
4486;SDS011;2256;48.740;9.106;2022-12-10T04:57:24;48.83;;;21.73;;
4486;SDS011;2256;48.740;9.106;2022-12-10T04:59:50;48.95;;;21.42;;
4486;SDS011;2256;48.740;9.106;2022-12-10T05:02:17;50.50;;;21.70;;
4486;SDS011;2256;48.740;9.106;2022-12-10T05:04:44;48.15;;;21.55;;
4486;SDS011;2256;48.740;9.106;2022-12-10T05:07:11;48.42;;;22.77;;
4486;SDS011;2256;48.740;9.106;2022-12-10T05:09:38;50.05;;;22.02;;
4486;SDS011;2256;48.740;9.106;2022-12-10T05:12:07;46.40;;;20.67;;
4486;SDS011;2256;48.740;9.106;2022-12-10T05:14:34;50.75;;;22.02;;
4486;SDS011;2256;48.740;9.106;2022-12-10T05:17:02;52.08;;;22.08;;
4486;SDS011;2256;48.740;9.106;2022-12-10T05:19:29;48.60;;;21.95;;
4486;SDS011;2256;48.740;9.106;2022-12-10T05:21:57;48.97;;;21.38;;
4486;SDS011;2256;48.740;9.106;2022-12-10T05:24:41;47.65;;;20.80;;
4486;SDS011;2256;48.740;9.106;2022-12-10T05:27:09;58.13;;;22.48;;
4486;SDS011;2256;48.740;9.106;2022-12-10T05:29:36;60.53;;;23.05;;
4486;SDS011;2256;48.740;9.106;2022-12-10T05:32:03;54.97;;;22.05;;
4486;SDS011;2256;48.740;9.106;2022-12-10T05:34:31;52.35;;;23.50;;
4486;SDS011;2256;48.740;9.106;2022-12-10T05:36:59;54.25;;;21.30;;
4486;SDS011;2256;48.740;9.106;2022-12-10T05:39:26;50.60;;;20.90;;
4486;SDS011;2256;48.740;9.106;2022-12-10T05:41:53;54.08;;;22.58;;
4486;SDS011;2256;48.740;9.106;2022-12-10T05:44:21;54.55;;;21.00;;
4486;SDS011;2256;48.740;9.106;2022-12-10T05:46:48;50.53;;;22.02;;
4486;SDS011;2256;48.740;9.106;2022-12-10T05:49:14;47.58;;;20.95;;
4486;SDS011;2256;48.740;9.106;2022-12-10T05:51:41;61.28;;;23.33;;
4486;SDS011;2256;48.740;9.106;2022-12-10T05:54:09;51.33;;;22.92;;
4486;SDS011;2256;48.740;9.106;2022-12-10T05:56:36;52.05;;;22.83;;
4486;SDS011;2256;48.740;9.106;2022-12-10T05:59:03;48.15;;;19.98;;
4486;SDS011;2256;48.740;9.106;2022-12-10T06:01:32;55.97;;;22.40;;
4486;SDS011;2256;48.740;9.106;2022-12-10T06:04:00;54.80;;;21.70;;
4486;SDS011;2256;48.740;9.106;2022-12-10T06:06:29;53.38;;;23.23;;
4486;SDS011;2256;48.740;9.106;2022-12-10T06:08:57;56.55;;;23.55;;
4486;SDS011;2256;48.740;9.106;2022-12-10T06:11:25;50.15;;;21.70;;
4486;SDS011;2256;48.740;9.106;2022-12-10T06:13:52;61.15;;;23.65;;
4486;SDS011;2256;48.740;9.106;2022-12-10T06:16:20;57.63;;;24.10;;
4486;SDS011;2256;48.740;9.106;2022-12-10T06:18:48;65.75;;;23.98;;
4486;SDS011;2256;48.740;9.106;2022-12-10T06:21:16;57.38;;;22.85;;
4486;SDS011;2256;48.740;9.106;2022-12-10T06:23:45;64.75;;;26.35;;
4486;SDS011;2256;48.740;9.106;2022-12-10T06:26:17;54.80;;;23.38;;
4486;SDS011;2256;48.740;9.106;2022-12-10T06:28:46;56.55;;;23.92;;
4486;SDS011;2256;48.740;9.106;2022-12-10T06:31:14;56.60;;;22.55;;
4486;SDS011;2256;48.740;9.106;2022-12-10T06:33:41;51.13;;;23.52;;
4486;SDS011;2256;48.740;9.106;2022-12-10T06:36:13;55.03;;;23.38;;
4486;SDS011;2256;48.740;9.106;2022-12-10T06:38:41;55.17;;;22.83;;
4486;SDS011;2256;48.740;9.106;2022-12-10T06:41:08;62.53;;;22.58;;
4486;SDS011;2256;48.740;9.106;2022-12-10T06:43:36;55.67;;;23.83;;
4486;SDS011;2256;48.740;9.106;2022-12-10T06:46:04;59.72;;;22.95;;
4486;SDS011;2256;48.740;9.106;2022-12-10T06:48:32;63.92;;;23.73;;
4486;SDS011;2256;48.740;9.106;2022-12-10T06:51:01;63.92;;;24.65;;
4486;SDS011;2256;48.740;9.106;2022-12-10T06:53:30;65.75;;;24.10;;
4486;SDS011;2256;48.740;9.106;2022-12-10T06:55:58;63.75;;;23.17;;
4486;SDS011;2256;48.740;9.106;2022-12-10T06:58:26;64.72;;;25.48;;
4486;SDS011;2256;48.740;9.106;2022-12-10T07:00:53;53.63;;;24.38;;
4486;SDS011;2256;48.740;9.106;2022-12-10T07:03:20;66.22;;;23.73;;
4486;SDS011;2256;48.740;9.106;2022-12-10T07:05:48;58.58;;;23.13;;
4486;SDS011;2256;48.740;9.106;2022-12-10T07:08:14;53.95;;;21.15;;
4486;SDS011;2256;48.740;9.106;2022-12-10T07:10:44;63.83;;;25.75;;
4486;SDS011;2256;48.740;9.106;2022-12-10T07:13:11;58.05;;;23.20;;
4486;SDS011;2256;48.740;9.106;2022-12-10T07:15:38;54.90;;;23.58;;
4486;SDS011;2256;48.740;9.106;2022-12-10T07:18:06;50.75;;;21.98;;
4486;SDS011;2256;48.740;9.106;2022-12-10T07:20:33;61.10;;;24.27;;
4486;SDS011;2256;48.740;9.106;2022-12-10T07:23:00;64.50;;;24.80;;
4486;SDS011;2256;48.740;9.106;2022-12-10T07:25:27;52.17;;;22.83;;
4486;SDS011;2256;48.740;9.106;2022-12-10T07:27:57;56.00;;;22.90;;
4486;SDS011;2256;48.740;9.106;2022-12-10T07:30:25;57.22;;;23.25;;
4486;SDS011;2256;48.740;9.106;2022-12-10T07:32:53;56.80;;;23.85;;
4486;SDS011;2256;48.740;9.106;2022-12-10T07:35:19;62.38;;;24.00;;
4486;SDS011;2256;48.740;9.106;2022-12-10T07:37:46;54.75;;;23.73;;
4486;SDS011;2256;48.740;9.106;2022-12-10T07:40:14;64.18;;;25.05;;
4486;SDS011;2256;48.740;9.106;2022-12-10T07:42:41;58.10;;;24.15;;
4486;SDS011;2256;48.740;9.106;2022-12-10T07:45:10;58.70;;;23.00;;
4486;SDS011;2256;48.740;9.106;2022-12-10T07:47:37;60.65;;;23.67;;
4486;SDS011;2256;48.740;9.106;2022-12-10T07:50:05;52.25;;;22.98;;
4486;SDS011;2256;48.740;9.106;2022-12-10T07:52:32;52.63;;;23.52;;
4486;SDS011;2256;48.740;9.106;2022-12-10T07:55:00;52.05;;;21.25;;
4486;SDS011;2256;48.740;9.106;2022-12-10T07:57:28;53.53;;;22.30;;
4486;SDS011;2256;48.740;9.106;2022-12-10T07:59:59;51.83;;;22.50;;
4486;SDS011;2256;48.740;9.106;2022-12-10T08:02:32;58.25;;;21.52;;
4486;SDS011;2256;48.740;9.106;2022-12-10T08:04:59;64.05;;;24.00;;
4486;SDS011;2256;48.740;9.106;2022-12-10T08:07:26;57.67;;;22.42;;
4486;SDS011;2256;48.740;9.106;2022-12-10T08:09:52;49.58;;;22.83;;
4486;SDS011;2256;48.740;9.106;2022-12-10T08:12:19;57.20;;;22.35;;
4486;SDS011;2256;48.740;9.106;2022-12-10T08:14:46;48.10;;;21.23;;
4486;SDS011;2256;48.740;9.106;2022-12-10T08:17:16;45.28;;;20.05;;
4486;SDS011;2256;48.740;9.106;2022-12-10T08:19:44;50.85;;;23.33;;
4486;SDS011;2256;48.740;9.106;2022-12-10T08:22:11;46.67;;;21.95;;
4486;SDS011;2256;48.740;9.106;2022-12-10T08:24:37;49.13;;;20.45;;
4486;SDS011;2256;48.740;9.106;2022-12-10T08:27:05;52.30;;;22.20;;
4486;SDS011;2256;48.740;9.106;2022-12-10T08:29:33;58.25;;;22.70;;
4486;SDS011;2256;48.740;9.106;2022-12-10T08:32:00;47.45;;;20.83;;
4486;SDS011;2256;48.740;9.106;2022-12-10T08:34:26;45.33;;;20.02;;
4486;SDS011;2256;48.740;9.106;2022-12-10T08:36:54;60.28;;;22.10;;
4486;SDS011;2256;48.740;9.106;2022-12-10T08:39:21;51.33;;;21.13;;
4486;SDS011;2256;48.740;9.106;2022-12-10T08:41:48;48.42;;;20.65;;
4486;SDS011;2256;48.740;9.106;2022-12-10T08:44:15;50.20;;;20.20;;
4486;SDS011;2256;48.740;9.106;2022-12-10T08:46:41;56.33;;;22.23;;
4486;SDS011;2256;48.740;9.106;2022-12-10T08:49:08;53.58;;;22.05;;
4486;SDS011;2256;48.740;9.106;2022-12-10T08:51:38;46.33;;;19.88;;
4486;SDS011;2256;48.740;9.106;2022-12-10T08:54:06;49.22;;;20.10;;
4486;SDS011;2256;48.740;9.106;2022-12-10T08:56:33;51.40;;;19.83;;
4486;SDS011;2256;48.740;9.106;2022-12-10T08:59:01;51.78;;;22.20;;
4486;SDS011;2256;48.740;9.106;2022-12-10T09:01:28;52.35;;;22.25;;
4486;SDS011;2256;48.740;9.106;2022-12-10T09:03:55;47.92;;;20.52;;
4486;SDS011;2256;48.740;9.106;2022-12-10T09:06:22;54.95;;;21.17;;
4486;SDS011;2256;48.740;9.106;2022-12-10T09:08:50;50.53;;;22.60;;
4486;SDS011;2256;48.740;9.106;2022-12-10T09:11:19;57.55;;;19.85;;
4486;SDS011;2256;48.740;9.106;2022-12-10T09:13:47;43.22;;;18.90;;
4486;SDS011;2256;48.740;9.106;2022-12-10T09:16:15;58.28;;;22.50;;
4486;SDS011;2256;48.740;9.106;2022-12-10T09:18:42;49.40;;;21.38;;
4486;SDS011;2256;48.740;9.106;2022-12-10T09:21:10;50.33;;;22.40;;
4486;SDS011;2256;48.740;9.106;2022-12-10T09:23:38;44.25;;;20.95;;
4486;SDS011;2256;48.740;9.106;2022-12-10T09:26:05;44.40;;;18.35;;
4486;SDS011;2256;48.740;9.106;2022-12-10T09:28:34;50.63;;;20.15;;
4486;SDS011;2256;48.740;9.106;2022-12-10T09:31:01;55.33;;;22.58;;
4486;SDS011;2256;48.740;9.106;2022-12-10T09:33:30;46.60;;;20.67;;
4486;SDS011;2256;48.740;9.106;2022-12-10T09:35:58;50.53;;;19.38;;
4486;SDS011;2256;48.740;9.106;2022-12-10T09:38:25;48.15;;;21.63;;
4486;SDS011;2256;48.740;9.106;2022-12-10T09:40:55;48.30;;;21.55;;
4486;SDS011;2256;48.740;9.106;2022-12-10T09:43:28;44.95;;;20.70;;
4486;SDS011;2256;48.740;9.106;2022-12-10T09:46:12;47.83;;;20.20;;
4486;SDS011;2256;48.740;9.106;2022-12-10T09:48:52;44.60;;;20.98;;
4486;SDS011;2256;48.740;9.106;2022-12-10T09:51:27;47.65;;;20.92;;
4486;SDS011;2256;48.740;9.106;2022-12-10T09:53:57;55.10;;;22.92;;
4486;SDS011;2256;48.740;9.106;2022-12-10T09:56:26;47.08;;;21.25;;
4486;SDS011;2256;48.740;9.106;2022-12-10T09:58:57;48.35;;;21.67;;
4486;SDS011;2256;48.740;9.106;2022-12-10T10:01:27;71.28;;;21.50;;
4486;SDS011;2256;48.740;9.106;2022-12-10T10:03:57;55.35;;;22.63;;
4486;SDS011;2256;48.740;9.106;2022-12-10T10:06:24;53.85;;;20.52;;
4486;SDS011;2256;48.740;9.106;2022-12-10T10:08:54;48.28;;;20.05;;
4486;SDS011;2256;48.740;9.106;2022-12-10T10:11:24;54.80;;;23.08;;
4486;SDS011;2256;48.740;9.106;2022-12-10T10:13:56;52.33;;;22.98;;
4486;SDS011;2256;48.740;9.106;2022-12-10T10:16:26;54.47;;;20.88;;
4486;SDS011;2256;48.740;9.106;2022-12-10T10:18:57;47.33;;;22.40;;
4486;SDS011;2256;48.740;9.106;2022-12-10T10:21:26;52.20;;;22.33;;
4486;SDS011;2256;48.740;9.106;2022-12-10T10:23:56;50.35;;;21.30;;
4486;SDS011;2256;48.740;9.106;2022-12-10T10:26:23;40.80;;;18.92;;
4486;SDS011;2256;48.740;9.106;2022-12-10T10:28:52;42.92;;;19.90;;
4486;SDS011;2256;48.740;9.106;2022-12-10T10:31:25;42.72;;;20.85;;
4486;SDS011;2256;48.740;9.106;2022-12-10T10:33:54;47.92;;;20.58;;
4486;SDS011;2256;48.740;9.106;2022-12-10T10:36:22;45.50;;;20.35;;
4486;SDS011;2256;48.740;9.106;2022-12-10T10:38:51;44.25;;;19.58;;
4486;SDS011;2256;48.740;9.106;2022-12-10T10:41:18;42.28;;;21.05;;
4486;SDS011;2256;48.740;9.106;2022-12-10T10:43:45;39.75;;;19.45;;
4486;SDS011;2256;48.740;9.106;2022-12-10T10:46:14;52.10;;;19.77;;
4486;SDS011;2256;48.740;9.106;2022-12-10T10:48:43;49.78;;;19.45;;
4486;SDS011;2256;48.740;9.106;2022-12-10T10:51:15;44.08;;;20.13;;
4486;SDS011;2256;48.740;9.106;2022-12-10T10:53:50;49.90;;;19.60;;
4486;SDS011;2256;48.740;9.106;2022-12-10T10:56:18;42.08;;;18.50;;
4486;SDS011;2256;48.740;9.106;2022-12-10T10:58:50;50.13;;;21.35;;
4486;SDS011;2256;48.740;9.106;2022-12-10T11:01:22;40.75;;;18.65;;
4486;SDS011;2256;48.740;9.106;2022-12-10T11:03:53;44.72;;;19.60;;
4486;SDS011;2256;48.740;9.106;2022-12-10T11:06:22;46.30;;;20.15;;
4486;SDS011;2256;48.740;9.106;2022-12-10T11:08:49;45.40;;;19.17;;
4486;SDS011;2256;48.740;9.106;2022-12-10T11:11:22;40.35;;;18.02;;
4486;SDS011;2256;48.740;9.106;2022-12-10T11:13:51;39.60;;;18.40;;
4486;SDS011;2256;48.740;9.106;2022-12-10T11:16:18;39.13;;;17.77;;
4486;SDS011;2256;48.740;9.106;2022-12-10T11:18:55;40.10;;;18.40;;
4486;SDS011;2256;48.740;9.106;2022-12-10T11:21:27;38.92;;;18.05;;
4486;SDS011;2256;48.740;9.106;2022-12-10T11:23:55;40.50;;;18.70;;
4486;SDS011;2256;48.740;9.106;2022-12-10T11:26:30;38.42;;;16.67;;
4486;SDS011;2256;48.740;9.106;2022-12-10T11:29:14;35.35;;;17.67;;
4486;SDS011;2256;48.740;9.106;2022-12-10T11:31:51;34.40;;;17.10;;
4486;SDS011;2256;48.740;9.106;2022-12-10T11:34:30;40.22;;;17.95;;
4486;SDS011;2256;48.740;9.106;2022-12-10T11:37:07;35.05;;;16.08;;
4486;SDS011;2256;48.740;9.106;2022-12-10T11:39:47;34.17;;;15.38;;
4486;SDS011;2256;48.740;9.106;2022-12-10T11:42:23;39.83;;;19.67;;
4486;SDS011;2256;48.740;9.106;2022-12-10T11:45:00;44.03;;;19.35;;
4486;SDS011;2256;48.740;9.106;2022-12-10T11:47:36;43.17;;;17.48;;
4486;SDS011;2256;48.740;9.106;2022-12-10T11:50:20;47.55;;;18.85;;
4486;SDS011;2256;48.740;9.106;2022-12-10T11:53:00;38.20;;;18.17;;
4486;SDS011;2256;48.740;9.106;2022-12-10T11:55:39;41.88;;;18.38;;
4486;SDS011;2256;48.740;9.106;2022-12-10T11:58:22;39.40;;;18.00;;
4486;SDS011;2256;48.740;9.106;2022-12-10T12:01:02;37.13;;;17.75;;
4486;SDS011;2256;48.740;9.106;2022-12-10T12:03:46;43.72;;;19.55;;
4486;SDS011;2256;48.740;9.106;2022-12-10T12:09:19;38.28;;;18.15;;
4486;SDS011;2256;48.740;9.106;2022-12-10T12:12:00;48.67;;;20.33;;
4486;SDS011;2256;48.740;9.106;2022-12-10T12:14:40;45.17;;;18.83;;
4486;SDS011;2256;48.740;9.106;2022-12-10T12:17:11;36.83;;;17.17;;
4486;SDS011;2256;48.740;9.106;2022-12-10T12:19:46;37.58;;;18.40;;
4486;SDS011;2256;48.740;9.106;2022-12-10T12:22:21;38.97;;;17.60;;
4486;SDS011;2256;48.740;9.106;2022-12-10T12:24:50;40.17;;;18.42;;
4486;SDS011;2256;48.740;9.106;2022-12-10T12:27:22;46.35;;;19.13;;
4486;SDS011;2256;48.740;9.106;2022-12-10T12:29:57;33.17;;;17.08;;
4486;SDS011;2256;48.740;9.106;2022-12-10T12:32:31;35.50;;;16.65;;
4486;SDS011;2256;48.740;9.106;2022-12-10T12:35:06;42.60;;;16.90;;
4486;SDS011;2256;48.740;9.106;2022-12-10T12:37:41;35.15;;;15.05;;
4486;SDS011;2256;48.740;9.106;2022-12-10T12:40:13;42.25;;;17.17;;
4486;SDS011;2256;48.740;9.106;2022-12-10T12:42:47;39.67;;;15.40;;
4486;SDS011;2256;48.740;9.106;2022-12-10T12:45:21;37.47;;;16.35;;
4486;SDS011;2256;48.740;9.106;2022-12-10T12:47:56;34.60;;;15.88;;
4486;SDS011;2256;48.740;9.106;2022-12-10T12:50:30;32.83;;;15.88;;
4486;SDS011;2256;48.740;9.106;2022-12-10T12:53:07;37.50;;;16.70;;
4486;SDS011;2256;48.740;9.106;2022-12-10T12:55:38;30.13;;;15.80;;
4486;SDS011;2256;48.740;9.106;2022-12-10T12:58:13;33.65;;;16.15;;
4486;SDS011;2256;48.740;9.106;2022-12-10T13:00:51;37.40;;;16.35;;
4486;SDS011;2256;48.740;9.106;2022-12-10T13:03:25;30.73;;;15.70;;
4486;SDS011;2256;48.740;9.106;2022-12-10T13:06:11;36.53;;;15.43;;
4486;SDS011;2256;48.740;9.106;2022-12-10T13:08:45;33.20;;;15.60;;
4486;SDS011;2256;48.740;9.106;2022-12-10T13:11:28;35.13;;;16.63;;
4486;SDS011;2256;48.740;9.106;2022-12-10T13:17:00;32.65;;;15.48;;
4486;SDS011;2256;48.740;9.106;2022-12-10T13:19:50;34.83;;;15.40;;
4486;SDS011;2256;48.740;9.106;2022-12-10T13:25:13;40.17;;;16.90;;
4486;SDS011;2256;48.740;9.106;2022-12-10T13:27:53;39.25;;;16.75;;
4486;SDS011;2256;48.740;9.106;2022-12-10T13:30:26;28.17;;;14.82;;
4486;SDS011;2256;48.740;9.106;2022-12-10T13:35:44;37.75;;;17.13;;
4486;SDS011;2256;48.740;9.106;2022-12-10T13:38:18;37.38;;;17.48;;
4486;SDS011;2256;48.740;9.106;2022-12-10T13:40:57;32.80;;;16.52;;
4486;SDS011;2256;48.740;9.106;2022-12-10T13:43:51;34.28;;;16.02;;
4486;SDS011;2256;48.740;9.106;2022-12-10T13:46:56;31.23;;;15.10;;
4486;SDS011;2256;48.740;9.106;2022-12-10T13:49:26;41.70;;;17.45;;
4486;SDS011;2256;48.740;9.106;2022-12-10T13:51:55;35.90;;;15.85;;
4486;SDS011;2256;48.740;9.106;2022-12-10T13:54:41;39.72;;;17.05;;
4486;SDS011;2256;48.740;9.106;2022-12-10T13:57:41;32.08;;;15.98;;
4486;SDS011;2256;48.740;9.106;2022-12-10T14:00:17;37.65;;;16.17;;
4486;SDS011;2256;48.740;9.106;2022-12-10T14:03:02;45.97;;;16.15;;
4486;SDS011;2256;48.740;9.106;2022-12-10T14:05:47;34.08;;;14.55;;
4486;SDS011;2256;48.740;9.106;2022-12-10T14:08:22;42.35;;;16.63;;
4486;SDS011;2256;48.740;9.106;2022-12-10T14:10:53;40.67;;;17.75;;
4486;SDS011;2256;48.740;9.106;2022-12-10T14:13:25;32.65;;;15.07;;
4486;SDS011;2256;48.740;9.106;2022-12-10T14:15:58;35.78;;;16.30;;
4486;SDS011;2256;48.740;9.106;2022-12-10T14:18:26;42.33;;;16.45;;
4486;SDS011;2256;48.740;9.106;2022-12-10T14:20:55;36.80;;;15.77;;
4486;SDS011;2256;48.740;9.106;2022-12-10T14:23:24;46.95;;;16.92;;
4486;SDS011;2256;48.740;9.106;2022-12-10T14:26:02;36.95;;;16.38;;
4486;SDS011;2256;48.740;9.106;2022-12-10T14:28:36;37.63;;;16.50;;
4486;SDS011;2256;48.740;9.106;2022-12-10T14:31:06;39.25;;;16.55;;
4486;SDS011;2256;48.740;9.106;2022-12-10T14:33:39;30.50;;;15.57;;
4486;SDS011;2256;48.740;9.106;2022-12-10T14:36:06;33.97;;;15.75;;
4486;SDS011;2256;48.740;9.106;2022-12-10T14:38:40;45.72;;;15.70;;
4486;SDS011;2256;48.740;9.106;2022-12-10T14:41:06;37.97;;;15.65;;
4486;SDS011;2256;48.740;9.106;2022-12-10T14:43:38;35.78;;;14.70;;
4486;SDS011;2256;48.740;9.106;2022-12-10T14:46:11;33.42;;;15.48;;
4486;SDS011;2256;48.740;9.106;2022-12-10T14:48:40;34.83;;;14.85;;
4486;SDS011;2256;48.740;9.106;2022-12-10T14:51:11;35.33;;;15.95;;
4486;SDS011;2256;48.740;9.106;2022-12-10T14:53:40;33.72;;;14.80;;
4486;SDS011;2256;48.740;9.106;2022-12-10T14:56:08;36.30;;;16.20;;
4486;SDS011;2256;48.740;9.106;2022-12-10T14:58:41;33.60;;;15.85;;
4486;SDS011;2256;48.740;9.106;2022-12-10T15:01:13;34.35;;;14.77;;
4486;SDS011;2256;48.740;9.106;2022-12-10T15:03:45;34.42;;;14.60;;
4486;SDS011;2256;48.740;9.106;2022-12-10T15:06:14;29.52;;;12.75;;
4486;SDS011;2256;48.740;9.106;2022-12-10T15:08:45;31.17;;;14.88;;
4486;SDS011;2256;48.740;9.106;2022-12-10T15:11:14;31.70;;;13.88;;
4486;SDS011;2256;48.740;9.106;2022-12-10T15:13:45;27.27;;;13.90;;
4486;SDS011;2256;48.740;9.106;2022-12-10T15:16:15;35.80;;;15.00;;
4486;SDS011;2256;48.740;9.106;2022-12-10T15:18:43;29.05;;;12.90;;
4486;SDS011;2256;48.740;9.106;2022-12-10T15:21:11;30.48;;;13.75;;
4486;SDS011;2256;48.740;9.106;2022-12-10T15:23:42;33.70;;;14.07;;